Time;durP1;ratioP1;P1;durP2;ratioP2;P2;SDS_P1;SDS_P2;PMS_P1;PMS_P2;Temp;Humidity;BMP_temperature;BMP_pressure;BME280_temperature;BME280_humidity;BME280_pressure;Samples;Min_cycle;Max_cycle;Signal;HPM_P1;HPM_P2
2022/01/15 00:00:28;;;;;;;;;78.25;62.75;;;;;1.36;82.22;100558.56;5078393;27;47197;-78
2022/01/15 00:02:55;;;;;;;;;75.50;58.50;;;;;1.34;82.56;100567.19;5099727;27;45459;-79
2022/01/15 00:05:21;;;;;;;;;77.25;59.75;;;;;1.31;82.56;100564.53;5112053;27;45348;-79
2022/01/15 00:07:48;;;;;;;;;80.25;62.25;;;;;1.28;82.61;100560.16;5102264;27;45380;-79
2022/01/15 00:10:16;;;;;;;;;81.75;60.50;;;;;1.25;82.51;100557.47;5113222;27;46217;-79
2022/01/15 00:12:42;;;;;;;;;78.25;62.00;;;;;1.23;82.74;100556.56;5114557;27;45280;-79
2022/01/15 00:15:14;;;;;;;;;70.75;57.50;;;;;1.22;82.91;100551.34;5113671;27;45629;-79
2022/01/15 00:20:12;;;;;;;;;81.75;61.50;;;;;1.14;82.74;100552.94;5100525;27;46000;-79
2022/01/15 00:22:37;;;;;;;;;72.50;59.75;;;;;1.08;82.68;100545.88;5108814;27;45505;-79
2022/01/15 00:25:03;;;;;;;;;85.50;62.25;;;;;1.05;82.87;100551.00;5115923;27;45417;-80
2022/01/15 00:27:28;;;;;;;;;79.25;63.25;;;;;1.00;83.10;100545.72;5086114;27;45993;-79
2022/01/15 00:29:54;;;;;;;;;73.75;59.00;;;;;0.98;83.67;100547.41;5118684;27;46401;-80
2022/01/15 00:32:19;;;;;;;;;75.75;61.50;;;;;0.95;83.26;100547.34;5103890;27;45208;-79
2022/01/15 00:34:44;;;;;;;;;79.00;59.50;;;;;0.93;83.51;100541.25;5099291;27;45301;-79
2022/01/15 00:37:10;;;;;;;;;81.25;62.75;;;;;0.91;83.86;100548.13;5097645;27;45254;-79
2022/01/15 00:39:36;;;;;;;;;84.25;64.00;;;;;0.90;83.47;100548.06;5098008;27;46531;-79
2022/01/15 00:42:02;;;;;;;;;79.75;62.50;;;;;0.87;83.52;100542.81;5092717;27;45245;-79
2022/01/15 00:44:27;;;;;;;;;76.50;59.00;;;;;0.85;84.00;100544.50;5104758;27;45205;-79
2022/01/15 00:46:53;;;;;;;;;84.25;64.25;;;;;0.84;83.89;100545.38;5117501;27;45482;-79
2022/01/15 00:49:18;;;;;;;;;79.25;60.00;;;;;0.81;84.00;100546.19;5081656;27;46909;-79
2022/01/15 00:51:43;;;;;;;;;79.25;61.50;;;;;0.80;84.14;100541.81;5095989;27;45479;-79
2022/01/15 00:54:09;;;;;;;;;86.50;62.25;;;;;0.80;84.02;100543.53;5111332;27;45319;-79
2022/01/15 00:56:35;;;;;;;;;61.00;47.00;;;;;0.78;84.21;100542.63;5099685;27;45243;-79
2022/01/15 00:59:00;;;;;;;;;74.25;60.50;;;;;0.77;84.11;100539.16;5098887;27;46488;-79
2022/01/15 01:01:25;;;;;;;;;72.75;58.25;;;;;0.77;84.34;100538.28;5112481;27;45377;-79
2022/01/15 01:03:51;;;;;;;;;77.25;57.00;;;;;0.76;84.45;100545.19;5103912;27;45517;-79
2022/01/15 01:06:17;;;;;;;;;77.50;61.25;;;;;0.74;84.35;100531.28;5093447;27;45544;-80
2022/01/15 01:08:43;;;;;;;;;75.25;57.25;;;;;0.74;84.36;100527.81;5117767;27;45727;-79
2022/01/15 01:11:15;;;;;;;;;71.25;56.50;;;;;0.76;84.26;100536.53;5116771;27;45425;-79
2022/01/15 01:24:10;;;;;;;;;66.50;53.75;;;;;0.72;84.46;100527.78;5104476;27;45516;-79
2022/01/15 01:31:40;;;;;;;;;85.50;63.75;;;;;0.69;84.23;100519.94;5113904;27;45434;-79
2022/01/15 01:34:10;;;;;;;;;73.00;59.50;;;;;0.69;84.68;100519.94;5095291;27;45415;-79
2022/01/15 01:39:11;;;;;;;;;80.25;61.50;;;;;0.70;84.74;100521.69;5097492;27;45433;-79
2022/01/15 01:41:41;;;;;;;;;78.00;57.75;;;;;0.69;84.67;100515.63;5116177;27;45485;-79
2022/01/15 01:44:08;;;;;;;;;78.75;58.25;;;;;0.67;84.47;100509.50;5093261;27;45219;-80
2022/01/15 01:46:41;;;;;;;;;74.25;57.50;;;;;0.68;84.83;100512.97;5115426;27;45283;-79
2022/01/15 01:49:12;;;;;;;;;78.00;59.00;;;;;0.67;84.78;100512.09;5109937;27;45564;-79
2022/01/15 01:51:42;;;;;;;;;75.50;59.25;;;;;0.67;84.68;100508.66;5102572;27;45356;-79
2022/01/15 01:54:10;;;;;;;;;80.00;60.00;;;;;0.67;84.71;100508.66;5110601;27;45358;-79
2022/01/15 01:56:36;;;;;;;;;72.25;56.50;;;;;0.66;84.69;100510.38;5111097;27;45333;-79
2022/01/15 01:59:03;;;;;;;;;70.25;54.00;;;;;0.66;84.87;100501.72;5102066;27;45409;-79
2022/01/15 02:01:29;;;;;;;;;68.25;56.75;;;;;0.67;84.99;100495.69;5091593;27;45364;-79
2022/01/15 02:03:54;;;;;;;;;72.25;57.00;;;;;0.67;85.09;100495.69;5110290;27;45138;-79
2022/01/15 02:06:20;;;;;;;;;71.75;57.50;;;;;0.69;85.13;100496.56;5102748;27;45282;-79
2022/01/15 02:08:48;;;;;;;;;70.50;58.00;;;;;0.72;84.95;100496.66;5110812;27;46480;-79
2022/01/15 02:11:14;;;;;;;;;77.25;59.25;;;;;0.72;85.10;100493.19;5109577;27;45422;-79
2022/01/15 02:13:41;;;;;;;;;71.50;55.50;;;;;0.73;84.98;100487.13;5103146;27;45419;-79
2022/01/15 02:16:07;;;;;;;;;72.75;55.75;;;;;0.75;84.86;100482.88;5094634;27;46259;-79
2022/01/15 02:18:34;;;;;;;;;70.50;56.00;;;;;0.75;84.65;100478.53;5113605;27;45748;-79
2022/01/15 02:23:44;;;;;;;;;80.25;59.75;;;;;0.77;84.57;100479.47;5104575;27;45239;-79
2022/01/15 02:26:23;;;;;;;;;70.75;56.75;;;;;0.78;85.03;100473.44;5102739;27;45366;-79
2022/01/15 02:29:02;;;;;;;;;72.50;57.00;;;;;0.78;84.80;100469.97;5116749;27;45494;-79
2022/01/15 02:31:30;;;;;;;;;75.25;56.00;;;;;0.77;84.47;100470.81;5111134;27;45519;-79
2022/01/15 02:33:58;;;;;;;;;71.00;58.75;;;;;0.74;84.59;100463.81;5102238;27;45483;-79
2022/01/15 02:36:29;;;;;;;;;68.50;54.25;;;;;0.73;84.55;100467.25;5092373;27;45560;-78
2022/01/15 02:38:55;;;;;;;;;71.50;58.00;;;;;0.71;84.35;100471.53;5097648;27;47184;-78
2022/01/15 02:41:47;;;;;;;;;74.25;57.00;;;;;0.68;84.85;100461.09;5089573;27;45303;-79
2022/01/15 02:44:17;;;;;;;;;68.75;55.50;;;;;0.66;84.68;100458.50;5087331;27;45434;-80
2022/01/15 02:49:16;;;;;;;;;72.50;58.75;;;;;0.63;85.05;100455.81;5095172;27;45428;-79
2022/01/15 02:51:42;;;;;;;;;69.75;57.25;;;;;0.61;85.16;100457.50;5082471;27;45396;-79
2022/01/15 02:54:09;;;;;;;;;76.75;57.00;;;;;0.59;84.86;100458.31;5099849;27;45343;-79
2022/01/15 02:56:38;;;;;;;;;70.25;56.00;;;;;0.58;84.91;100453.97;5111935;27;45474;-79
2022/01/15 02:59:05;;;;;;;;;69.50;55.25;;;;;0.57;85.04;100449.63;5076850;27;48356;-79
2022/01/15 03:01:32;;;;;;;;;77.00;56.50;;;;;0.54;85.25;100450.41;5076716;27;45479;-79
2022/01/15 03:03:57;;;;;;;;;73.25;58.00;;;;;0.52;85.15;100443.44;5115901;27;45357;-79
2022/01/15 03:06:24;;;;;;;;;74.50;56.75;;;;;0.51;85.06;100446.88;5115567;27;45380;-79
2022/01/15 03:08:50;;;;;;;;;74.50;56.75;;;;;0.48;85.39;100439.94;5097612;27;48090;-79
2022/01/15 03:11:16;;;;;;;;;71.25;57.25;;;;;0.46;85.21;100438.16;5116133;27;45649;-79
2022/01/15 03:13:43;;;;;;;;;72.50;59.25;;;;;0.44;85.16;100442.41;5095547;27;45441;-79
2022/01/15 03:16:11;;;;;;;;;72.25;55.50;;;;;0.43;85.50;100430.28;5108857;27;45451;-79
2022/01/15 03:18:36;;;;;;;;;78.00;60.50;;;;;0.40;85.46;100428.50;5083589;27;46830;-80
2022/01/15 03:21:02;;;;;;;;;68.25;56.25;;;;;0.38;85.61;100425.00;5103042;27;45163;-79
2022/01/15 03:23:28;;;;;;;;;75.75;56.75;;;;;0.38;85.53;100418.94;5102364;27;45237;-79
2022/01/15 03:25:53;;;;;;;;;75.75;59.75;;;;;0.39;85.69;100416.38;5113201;27;45460;-79
2022/01/15 03:28:19;;;;;;;;;80.00;60.50;;;;;0.38;85.95;100417.22;5076929;27;47100;-79
2022/01/15 03:30:44;;;;;;;;;71.00;54.00;;;;;0.38;85.35;100413.75;5107754;27;45331;-79
2022/01/15 03:33:10;;;;;;;;;64.00;51.00;;;;;0.36;85.71;100405.94;5108874;27;45334;-80
2022/01/15 03:35:37;;;;;;;;;67.50;53.25;;;;;0.34;85.80;100405.00;5108841;27;45475;-79
2022/01/15 03:38:05;;;;;;;;;73.75;57.50;;;;;0.34;85.92;100405.00;5101849;27;46328;-80
2022/01/15 03:40:31;;;;;;;;;70.75;57.00;;;;;0.34;85.66;100405.00;5093755;27;45407;-79
2022/01/15 03:42:57;;;;;;;;;70.50;56.75;;;;;0.33;85.82;100409.34;5083515;27;45449;-79
2022/01/15 03:45:22;;;;;;;;;74.00;58.25;;;;;0.32;85.64;100398.94;5088951;27;45319;-79
2022/01/15 03:47:48;;;;;;;;;70.00;55.25;;;;;0.32;85.68;100396.34;5108405;27;45624;-79
2022/01/15 03:50:15;;;;;;;;;73.50;57.50;;;;;0.32;85.71;100394.63;5108708;27;45356;-79
2022/01/15 03:52:41;;;;;;;;;72.00;59.50;;;;;0.34;85.97;100400.69;5108090;27;45488;-79
2022/01/15 03:55:08;;;;;;;;;72.00;54.25;;;;;0.35;85.96;100398.97;5098890;27;45473;-79
2022/01/15 03:57:34;;;;;;;;;72.75;56.25;;;;;0.36;85.81;100395.56;5112872;27;45442;-79
2022/01/15 04:00:00;;;;;;;;;73.50;57.75;;;;;0.35;86.01;100389.50;5099929;27;45953;-79
2022/01/15 04:02:27;;;;;;;;;70.50;58.75;;;;;0.34;85.75;100389.44;5112269;27;45467;-79
2022/01/15 04:04:52;;;;;;;;;68.25;55.00;;;;;0.32;85.85;100385.97;5093743;27;45186;-79
2022/01/15 04:07:18;;;;;;;;;74.50;58.25;;;;;0.30;85.87;100380.75;5098273;27;46150;-79
2022/01/15 04:09:43;;;;;;;;;67.50;53.50;;;;;0.29;85.88;100381.59;5112085;27;45243;-79
2022/01/15 04:12:09;;;;;;;;;79.75;57.00;;;;;0.31;85.99;100384.22;5086936;27;45245;-78
2022/01/15 04:14:34;;;;;;;;;67.25;54.75;;;;;0.29;85.83;100381.59;5104698;27;45528;-79
2022/01/15 04:17:00;;;;;;;;;77.50;60.00;;;;;0.29;86.27;100383.31;5111941;27;46523;-79
2022/01/15 04:19:27;;;;;;;;;68.50;55.50;;;;;0.30;86.24;100377.28;5111565;27;45437;-79
2022/01/15 04:21:53;;;;;;;;;64.75;50.00;;;;;0.28;86.12;100379.84;5104901;27;45330;-79
2022/01/15 04:24:20;;;;;;;;;70.00;52.75;;;;;0.29;86.06;100379.00;5105151;27;45407;-79
2022/01/15 04:26:46;;;;;;;;;71.25;57.00;;;;;0.29;86.07;100371.22;5111264;27;46819;-79
2022/01/15 04:29:14;;;;;;;;;71.00;57.00;;;;;0.28;85.79;100373.78;5097251;27;45396;-79
2022/01/15 04:31:50;;;;;;;;;74.00;58.25;;;;;0.29;85.95;100367.75;5115539;27;45534;-79
2022/01/15 04:34:18;;;;;;;;;77.75;58.00;;;;;0.28;86.00;100373.78;5099689;27;45301;-79
2022/01/15 04:36:44;;;;;;;;;74.00;55.00;;;;;0.26;86.21;100378.06;5099397;27;47355;-79
2022/01/15 04:39:11;;;;;;;;;69.50;57.00;;;;;0.26;85.89;100378.06;5097855;27;45366;-80
2022/01/15 04:41:37;;;;;;;;;71.50;56.00;;;;;0.26;86.32;100383.25;5117729;27;45322;-80
2022/01/15 04:44:04;;;;;;;;;67.00;55.00;;;;;0.25;86.00;100378.91;5111592;27;45465;-79
2022/01/15 04:46:30;;;;;;;;;68.25;55.00;;;;;0.25;86.35;100381.50;5113712;27;45772;-79
2022/01/15 04:48:55;;;;;;;;;70.75;53.50;;;;;0.25;86.08;100384.09;5100727;27;45349;-79
2022/01/15 04:51:21;;;;;;;;;66.25;55.25;;;;;0.25;86.13;100387.56;5118205;27;45429;-79
2022/01/15 04:53:46;;;;;;;;;70.00;54.75;;;;;0.24;85.92;100383.22;5115346;27;45597;-79
2022/01/15 04:56:11;;;;;;;;;71.25;55.25;;;;;0.22;85.91;100377.09;5092104;27;46752;-79
2022/01/15 04:58:37;;;;;;;;;74.25;59.00;;;;;0.21;85.96;100382.25;5099237;27;45414;-79
2022/01/15 05:01:02;;;;;;;;;73.00;56.25;;;;;0.18;86.03;100383.06;5088923;27;45879;-78
2022/01/15 05:03:28;;;;;;;;;73.25;57.25;;;;;0.16;86.13;100377.00;5097489;27;45482;-79
2022/01/15 05:05:53;;;;;;;;;73.50;58.50;;;;;0.15;86.15;100377.84;5107276;27;45496;-79
2022/01/15 05:08:18;;;;;;;;;76.25;59.00;;;;;0.13;86.17;100373.47;5101386;27;45404;-79
2022/01/15 05:10:47;;;;;;;;;71.00;55.00;;;;;0.11;86.09;100378.59;5106311;27;45352;-79
2022/01/15 05:13:14;;;;;;;;;71.75;56.00;;;;;0.10;86.29;100375.97;5103655;27;45404;-79
2022/01/15 05:15:44;;;;;;;;;71.00;55.00;;;;;0.09;86.23;100382.00;5089166;27;47162;-79
2022/01/15 05:18:09;;;;;;;;;74.75;60.00;;;;;0.06;86.28;100384.53;5113963;27;45516;-79
2022/01/15 05:20:36;;;;;;;;;75.75;55.75;;;;;0.05;86.55;100387.94;5098918;27;45478;-80
2022/01/15 05:23:02;;;;;;;;;68.25;54.25;;;;;0.02;86.28;100382.69;5113803;27;45551;-79
2022/01/15 05:25:28;;;;;;;;;77.25;59.00;;;;;-0.01;86.23;100380.94;5085486;27;46879;-79
2022/01/15 05:27:53;;;;;;;;;68.75;53.75;;;;;-0.02;86.55;100386.97;5111212;27;45347;-79
2022/01/15 05:30:19;;;;;;;;;76.00;59.75;;;;;-0.04;86.55;100379.16;5106986;27;45297;-79
2022/01/15 05:32:44;;;;;;;;;72.00;53.00;;;;;-0.04;86.52;100383.44;5099967;27;45428;-79
2022/01/15 05:35:10;;;;;;;;;70.00;52.25;;;;;-0.06;86.91;100377.34;5107111;27;46627;-79
2022/01/15 05:37:36;;;;;;;;;68.25;55.50;;;;;-0.03;86.56;100380.03;5081627;27;45443;-79
2022/01/15 05:40:04;;;;;;;;;72.75;58.50;;;;;-0.05;86.71;100377.41;5107506;27;45411;-79
2022/01/15 05:42:29;;;;;;;;;62.00;49.25;;;;;-0.05;86.90;100382.56;5083537;27;45536;-79
2022/01/15 05:44:55;;;;;;;;;70.50;53.75;;;;;-0.04;86.83;100380.84;5088527;27;46131;-79
2022/01/15 05:47:20;;;;;;;;;68.25;54.75;;;;;-0.05;86.68;100373.94;5102488;27;45421;-79
2022/01/15 05:49:45;;;;;;;;;73.25;55.75;;;;;-0.07;86.94;100379.06;5105236;27;45766;-79
2022/01/15 05:52:11;;;;;;;;;70.00;55.25;;;;;-0.08;86.47;100373.84;5113567;27;45448;-79
2022/01/15 05:54:36;;;;;;;;;73.50;57.75;;;;;-0.10;86.67;100372.94;5107115;27;45395;-79
2022/01/15 05:57:02;;;;;;;;;75.25;60.75;;;;;-0.12;86.76;100372.03;5111760;27;45442;-79
2022/01/15 05:59:28;;;;;;;;;78.00;56.25;;;;;-0.13;86.66;100373.72;5107145;27;45210;-78
2022/01/15 06:01:53;;;;;;;;;72.00;57.75;;;;;-0.15;86.95;100369.34;5115554;27;45431;-79
2022/01/15 06:04:18;;;;;;;;;77.75;55.00;;;;;-0.17;87.16;100371.06;5100749;27;46990;-79
2022/01/15 06:06:44;;;;;;;;;78.50;58.50;;;;;-0.17;87.33;100369.31;5094851;27;45369;-79
2022/01/15 06:09:09;;;;;;;;;61.00;51.00;;;;;-0.16;87.54;100367.59;5117196;27;45353;-79
2022/01/15 06:11:37;;;;;;;;;74.00;58.00;;;;;-0.16;87.45;100359.81;5100530;27;45464;-79
2022/01/15 06:14:02;;;;;;;;;76.50;56.75;;;;;-0.15;87.24;100364.16;5095828;27;45470;-78
2022/01/15 06:16:27;;;;;;;;;74.00;55.75;;;;;-0.15;87.65;100365.03;5091361;27;45333;-80
2022/01/15 06:18:53;;;;;;;;;72.50;57.00;;;;;-0.13;87.43;100372.84;5078372;27;45790;-79
2022/01/15 06:21:19;;;;;;;;;70.25;57.00;;;;;-0.13;87.46;100365.97;5098077;27;45518;-79
2022/01/15 06:23:44;;;;;;;;;61.25;48.75;;;;;-0.13;87.25;100373.72;5108194;27;45426;-79
2022/01/15 06:26:10;;;;;;;;;66.00;55.25;;;;;-0.13;87.38;100367.69;5109953;27;45451;-79
2022/01/15 06:28:35;;;;;;;;;66.50;53.00;;;;;-0.15;87.30;100367.63;5116959;27;46072;-79
2022/01/15 06:31:01;;;;;;;;;61.50;51.50;;;;;-0.17;87.28;100355.50;5105685;27;45340;-80
2022/01/15 06:33:26;;;;;;;;;74.00;58.75;;;;;-0.20;87.36;100360.63;5108214;27;46262;-80
2022/01/15 06:35:52;;;;;;;;;68.75;55.50;;;;;-0.21;87.14;100364.06;5092592;27;45419;-80
2022/01/15 06:38:17;;;;;;;;;71.50;57.25;;;;;-0.23;87.28;100363.13;5089936;27;45364;-80
2022/01/15 06:40:43;;;;;;;;;68.75;53.00;;;;;-0.25;87.22;100370.88;5109334;27;45423;-80
2022/01/15 06:43:08;;;;;;;;;68.50;56.00;;;;;-0.25;87.13;100368.28;5107029;27;46657;-79
2022/01/15 06:45:34;;;;;;;;;71.75;55.50;;;;;-0.25;87.26;100367.41;5103212;27;45557;-80
2022/01/15 06:48:01;;;;;;;;;73.25;59.50;;;;;-0.28;87.39;100367.31;5097637;27;45420;-80
2022/01/15 06:50:28;;;;;;;;;74.75;55.00;;;;;-0.31;87.25;100368.13;5097261;27;45514;-81
2022/01/15 06:52:55;;;;;;;;;68.25;55.00;;;;;-0.32;87.24;100365.50;5088292;27;47444;-79
2022/01/15 06:55:21;;;;;;;;;74.50;59.00;;;;;-0.33;87.39;100361.16;5109418;27;45261;-80
2022/01/15 06:57:46;;;;;;;;;64.50;53.75;;;;;-0.36;87.12;100359.41;5095917;27;45452;-79
2022/01/15 07:00:13;;;;;;;;;68.00;55.25;;;;;-0.37;87.27;100362.81;5090842;27;45486;-80
2022/01/15 07:02:39;;;;;;;;;68.75;55.75;;;;;-0.39;87.32;100360.19;5115659;27;46905;-80
2022/01/15 07:05:06;;;;;;;;;62.00;50.75;;;;;-0.40;87.04;100361.03;5114846;27;45647;-79
2022/01/15 07:07:32;;;;;;;;;68.50;55.25;;;;;-0.42;87.28;100359.25;5096417;27;45400;-79
2022/01/15 07:09:58;;;;;;;;;72.50;59.75;;;;;-0.42;87.25;100360.13;5083562;27;45340;-80
2022/01/15 07:12:24;;;;;;;;;70.25;56.75;;;;;-0.42;87.27;100360.13;5116168;27;46589;-80
2022/01/15 07:14:49;;;;;;;;;65.75;54.25;;;;;-0.42;87.50;100367.88;5113388;27;45447;-80
2022/01/15 07:17:14;;;;;;;;;68.75;53.75;;;;;-0.43;87.50;100368.72;5087607;27;45394;-80
2022/01/15 07:19:40;;;;;;;;;72.50;58.00;;;;;-0.42;87.34;100360.13;5111143;27;45499;-79
2022/01/15 07:22:06;;;;;;;;;69.00;49.75;;;;;-0.42;87.26;100374.78;5087808;27;47088;-80
2022/01/15 07:24:32;;;;;;;;;72.00;58.00;;;;;-0.41;87.30;100368.75;5111251;27;45465;-79
2022/01/15 07:26:58;;;;;;;;;70.50;56.25;;;;;-0.41;87.30;100371.34;5094438;27;45436;-79
2022/01/15 07:29:24;;;;;;;;;67.50;55.25;;;;;-0.41;87.63;100361.88;5094510;27;45475;-80
2022/01/15 07:31:52;;;;;;;;;74.50;56.50;;;;;-0.42;87.37;100370.47;5113822;27;46124;-80
2022/01/15 07:34:18;;;;;;;;;70.25;54.00;;;;;-0.41;87.45;100371.34;5102783;27;45460;-78
2022/01/15 07:36:49;;;;;;;;;69.50;55.00;;;;;-0.41;87.45;100368.75;5098851;27;45426;-79
2022/01/15 07:39:15;;;;;;;;;64.25;53.25;;;;;-0.41;87.34;100371.34;5115697;27;45550;-80
2022/01/15 07:41:40;;;;;;;;;68.25;50.75;;;;;-0.39;87.21;100369.69;5111217;27;46257;-79
2022/01/15 07:44:06;;;;;;;;;74.00;53.25;;;;;-0.37;87.26;100378.38;5096748;27;45417;-79
2022/01/15 07:46:32;;;;;;;;;28.00;23.00;;;;;-0.38;87.18;100380.09;5089653;27;45451;-80
2022/01/15 07:48:57;;;;;;;;;68.25;54.25;;;;;-0.38;87.37;100372.31;5096413;27;45414;-79
2022/01/15 07:51:23;;;;;;;;;64.75;51.25;;;;;-0.36;87.31;100381.00;5108928;27;46196;-79
2022/01/15 07:53:48;;;;;;;;;76.75;58.50;;;;;-0.35;87.21;100381.88;5093601;27;45449;-80
2022/01/15 07:56:13;;;;;;;;;67.25;54.00;;;;;-0.33;87.43;100381.88;5079445;27;45484;-79
2022/01/15 07:58:39;;;;;;;;;73.75;56.75;;;;;-0.29;87.52;100388.88;5115069;27;45280;-79
2022/01/15 08:01:05;;;;;;;;;77.25;59.50;;;;;-0.26;87.00;100391.56;5090362;27;47875;-79
2022/01/15 08:03:31;;;;;;;;;71.75;56.75;;;;;-0.23;87.11;100389.94;5113111;27;45405;-80
2022/01/15 08:05:56;;;;;;;;;71.25;55.75;;;;;-0.20;86.89;100381.34;5107516;27;45250;-80
2022/01/15 08:08:22;;;;;;;;;73.75;59.00;;;;;-0.17;86.88;100384.88;5115452;27;45367;-80
2022/01/15 08:10:47;;;;;;;;;73.75;57.50;;;;;-0.14;86.86;100384.06;5107767;27;45606;-79
2022/01/15 08:13:13;;;;;;;;;74.00;58.50;;;;;-0.13;86.62;100386.69;5113508;27;45379;-80
2022/01/15 08:15:38;;;;;;;;;72.25;55.75;;;;;-0.10;86.68;100389.38;5095861;27;45297;-79
2022/01/15 08:18:04;;;;;;;;;79.00;58.50;;;;;-0.07;86.63;100381.66;5115555;27;45508;-79
2022/01/15 08:20:30;;;;;;;;;72.00;59.25;;;;;-0.03;86.59;100385.22;5106724;27;46101;-80
2022/01/15 08:22:55;;;;;;;;;72.00;56.50;;;;;-0.01;86.61;100383.53;5118344;27;45407;-80
2022/01/15 08:25:23;;;;;;;;;68.50;55.75;;;;;0.04;86.71;100386.19;5108833;27;45392;-80
2022/01/15 08:27:49;;;;;;;;;74.00;57.50;;;;;0.09;86.20;100384.59;5092657;27;45426;-79
2022/01/15 08:30:15;;;;;;;;;71.75;56.25;;;;;0.12;86.34;100384.66;5106347;27;45463;-80
2022/01/15 08:32:41;;;;;;;;;80.50;61.50;;;;;0.18;86.36;100384.78;5115378;27;45324;-80
2022/01/15 08:35:08;;;;;;;;;74.25;56.00;;;;;0.21;86.36;100383.13;5097792;27;45306;-80
2022/01/15 08:37:34;;;;;;;;;71.75;58.50;;;;;0.24;86.09;100384.91;5110669;27;45231;-80
2022/01/15 08:40:00;;;;;;;;;65.50;51.75;;;;;0.27;86.03;100383.28;5103578;27;45397;-80
2022/01/15 08:42:25;;;;;;;;;73.75;59.50;;;;;0.29;85.99;100388.50;5110697;27;45367;-79
2022/01/15 08:44:52;;;;;;;;;69.00;55.50;;;;;0.32;85.86;100383.38;5103300;27;45556;-79
2022/01/15 08:47:18;;;;;;;;;72.25;54.75;;;;;0.36;85.85;100387.78;5088158;27;46310;-79
2022/01/15 08:49:43;;;;;;;;;81.75;62.50;;;;;0.40;86.09;100389.59;5106106;27;46162;-79
2022/01/15 08:52:09;;;;;;;;;78.25;57.75;;;;;0.46;85.94;100386.25;5117049;27;45434;-79
2022/01/15 08:54:34;;;;;;;;;78.00;58.75;;;;;0.51;85.73;100380.31;5093719;27;45443;-79
2022/01/15 08:57:00;;;;;;;;;76.75;59.75;;;;;0.58;85.67;100384.78;5113092;27;45399;-80
2022/01/15 08:59:27;;;;;;;;;77.50;59.75;;;;;0.63;85.50;100387.47;5089173;27;47978;-81
2022/01/15 09:01:55;;;;;;;;;82.00;63.00;;;;;0.67;85.42;100382.34;5113447;27;45200;-80
2022/01/15 09:04:21;;;;;;;;;76.25;61.00;;;;;0.73;85.14;100385.94;5117256;27;45399;-80
2022/01/15 09:06:46;;;;;;;;;65.50;55.25;;;;;0.77;85.07;100388.63;5111594;27;45453;-80
2022/01/15 09:09:12;;;;;;;;;78.00;60.25;;;;;0.81;85.02;100386.97;5116621;27;46043;-80
2022/01/15 09:11:37;;;;;;;;;58.50;49.00;;;;;0.85;84.76;100373.19;5113640;27;45471;-80
2022/01/15 09:14:03;;;;;;;;;75.00;58.75;;;;;0.88;84.75;100379.31;5107413;27;45397;-79
2022/01/15 09:16:28;;;;;;;;;73.75;60.00;;;;;0.94;84.52;100378.56;5093289;27;45453;-80
2022/01/15 09:18:56;;;;;;;;;76.00;60.00;;;;;0.96;84.43;100372.56;5117394;27;46114;-80
2022/01/15 09:21:22;;;;;;;;;66.25;55.00;;;;;1.02;83.97;100367.44;5105935;27;45390;-80
2022/01/15 09:23:47;;;;;;;;;73.00;56.25;;;;;1.06;84.47;100365.78;5107356;27;45324;-80
2022/01/15 09:26:21;;;;;;;;;68.25;53.75;;;;;1.12;84.43;100367.63;5112500;27;45485;-80
2022/01/15 09:31:31;;;;;;;;;76.75;61.25;;;;;1.25;84.06;100374.78;5109589;27;45430;-79
2022/01/15 09:33:57;;;;;;;;;71.50;58.00;;;;;1.28;83.97;100367.94;5096289;27;45417;-80
2022/01/15 09:36:22;;;;;;;;;76.00;59.25;;;;;1.34;84.39;100368.00;5110507;27;45411;-80
2022/01/15 09:38:48;;;;;;;;;66.00;53.25;;;;;1.42;83.95;100373.34;5116748;27;46022;-80
2022/01/15 09:41:14;;;;;;;;;77.75;59.25;;;;;1.48;83.95;100368.28;5083661;27;45820;-79
2022/01/15 09:43:40;;;;;;;;;71.75;55.50;;;;;1.54;83.98;100375.25;5109700;27;45549;-79
2022/01/15 09:46:08;;;;;;;;;72.25;54.50;;;;;1.59;83.75;100361.50;5095854;27;45498;-79
2022/01/15 09:48:38;;;;;;;;;88.00;68.50;;;;;1.68;84.51;100364.22;5113457;27;45430;-79
2022/01/15 09:51:04;;;;;;;;;85.00;63.00;;;;;1.81;84.37;100356.66;5108841;27;45295;-79
2022/01/15 09:53:32;;;;;;;;;85.50;63.25;;;;;1.94;84.08;100363.75;5091424;27;45390;-80
2022/01/15 09:55:57;;;;;;;;;75.75;59.50;;;;;2.07;83.68;100352.69;5108460;27;45344;-80
2022/01/15 09:58:23;;;;;;;;;72.75;56.75;;;;;2.15;82.98;100356.28;5096085;27;45532;-80
2022/01/15 10:00:48;;;;;;;;;76.00;60.00;;;;;2.28;83.06;100355.56;5109149;27;45473;-79
2022/01/15 10:03:14;;;;;;;;;82.00;60.50;;;;;2.40;82.70;100357.44;5109515;27;45384;-79
2022/01/15 10:05:39;;;;;;;;;75.25;58.25;;;;;2.49;82.11;100351.50;5103091;27;45494;-79
2022/01/15 10:08:09;;;;;;;;;82.00;63.75;;;;;2.57;81.99;100355.06;5101666;27;46047;-79
2022/01/15 10:10:36;;;;;;;;;72.00;57.75;;;;;2.66;81.86;100353.44;5103511;27;45355;-79
2022/01/15 10:13:22;;;;;;;;;74.50;60.25;;;;;2.72;81.38;100345.69;5095196;27;45438;-79
2022/01/15 10:16:09;;;;;;;;;71.00;57.00;;;;;2.77;81.60;100354.44;5086778;27;45405;-79
2022/01/15 10:18:43;;;;;;;;;71.25;54.25;;;;;2.82;81.63;100343.19;5083895;27;46734;-80
2022/01/15 10:21:10;;;;;;;;;79.50;60.75;;;;;2.87;81.46;100344.97;5114525;27;45479;-80
2022/01/15 10:23:53;;;;;;;;;75.75;58.75;;;;;2.93;80.99;100331.16;5106551;27;45619;-79
2022/01/15 10:26:21;;;;;;;;;74.00;55.75;;;;;2.99;81.27;100326.00;5099896;27;45525;-80
2022/01/15 10:28:50;;;;;;;;;72.25;59.00;;;;;3.05;80.95;100331.25;5103299;27;45418;-80
2022/01/15 10:31:31;;;;;;;;;73.00;59.00;;;;;3.11;80.94;100328.72;5094965;27;45955;-80
2022/01/15 10:33:59;;;;;;;;;73.50;59.50;;;;;3.18;81.08;100330.53;5083753;27;45440;-79
2022/01/15 10:36:32;;;;;;;;;73.00;57.75;;;;;3.24;81.02;100319.28;5092848;27;45460;-79
2022/01/15 10:39:19;;;;;;;;;72.00;55.25;;;;;3.27;80.73;100314.09;5110349;27;45750;-80
2022/01/15 10:41:48;;;;;;;;;77.75;59.50;;;;;3.35;80.47;100315.03;5081584;27;45358;-79
2022/01/15 10:44:34;;;;;;;;;72.00;57.50;;;;;3.41;80.17;100309.88;5105496;27;45502;-79
2022/01/15 10:47:05;;;;;;;;;70.00;55.75;;;;;3.51;80.31;100303.88;5104757;27;45511;-61
2022/01/15 10:49:31;;;;;;;;;69.25;55.25;;;;;3.60;79.91;100306.53;5113005;27;46220;-61
2022/01/15 10:52:24;;;;;;;;;73.50;58.00;;;;;3.70;79.63;100294.41;5100100;27;45494;-61
2022/01/15 10:55:05;;;;;;;;;73.00;56.25;;;;;3.79;79.47;100291.88;5092086;27;45423;-60
2022/01/15 10:57:39;;;;;;;;;73.25;60.50;;;;;3.84;79.27;100293.66;5099326;27;45474;-60
2022/01/15 11:00:10;;;;;;;;;76.25;59.25;;;;;3.90;79.04;100286.72;5093876;27;46763;-60
2022/01/15 11:02:35;;;;;;;;;87.00;60.50;;;;;3.96;78.82;100284.16;5103796;27;45396;-59
2022/01/15 11:05:03;;;;;;;;;72.50;58.75;;;;;4.02;78.77;100289.41;5101790;27;45538;-60
2022/01/15 11:07:35;;;;;;;;;78.50;58.50;;;;;4.07;78.64;100282.44;5111224;27;45485;-60
2022/01/15 11:10:02;;;;;;;;;72.50;57.00;;;;;4.12;78.67;100280.75;5100480;27;45536;-59
2022/01/15 11:12:27;;;;;;;;;75.50;57.50;;;;;4.17;78.43;100274.69;5106470;27;45359;-59
2022/01/15 11:14:53;;;;;;;;;71.50;58.50;;;;;4.22;78.36;100272.09;5092126;27;45542;-59
2022/01/15 11:17:19;;;;;;;;;74.50;57.75;;;;;4.30;78.62;100275.59;5099876;27;45607;-59
2022/01/15 11:19:45;;;;;;;;;77.00;58.50;;;;;4.36;78.02;100265.16;5093190;27;45422;-61
2022/01/15 11:22:18;;;;;;;;;75.75;57.75;;;;;4.43;77.96;100261.72;5097964;27;45418;-59
2022/01/15 11:24:44;;;;;;;;;77.50;59.25;;;;;4.51;77.89;100253.91;5093481;27;45459;-59
2022/01/15 11:27:10;;;;;;;;;68.25;55.50;;;;;4.58;77.66;100253.06;5105929;27;45709;-59
2022/01/15 11:29:36;;;;;;;;;72.25;56.50;;;;;4.65;77.46;100239.16;5095809;27;46179;-59
2022/01/15 11:32:03;;;;;;;;;71.25;56.50;;;;;4.74;77.82;100233.06;5103729;27;45342;-60
2022/01/15 11:34:29;;;;;;;;;71.00;56.50;;;;;4.80;77.08;100226.09;5077673;27;45421;-59
2022/01/15 11:36:54;;;;;;;;;71.75;55.00;;;;;4.87;76.40;100224.34;5111953;27;45537;-59
2022/01/15 11:39:33;;;;;;;;;64.50;52.00;;;;;4.91;76.39;100220.88;5114482;27;46001;-60
2022/01/15 11:42:01;;;;;;;;;69.25;52.50;;;;;4.95;76.52;100214.78;5111776;27;45511;-59